WXM80 ListenWXM80 Stop

You find our weather info also at:

UK Metoffice

WeatherCloud

Weather Underground

Northeastern Weather Network

AWEKAS

Citizen Weather Observer Program (CWOP)

HAMweather, WeatherForYou, PWS Weather


Weather Underground History page Text

Daily Summary for April 27, 2017 Units:  Both    English   Metric
« Previous Day
Next Day »
Daily Weekly Monthly Yearly Custom
  High: Low: Average:
Temperature: 66.8 °F /  19.3 °C 53.7 °F /  12.1 °C 59.8 °F /  15.4 °C
Dew Point: 62.4 °F /  16.9 °C 52.9 °F /  11.6 °C 57.9 °F /  14.4 °C
Humidity: 99 % 79 % 94 %
Wind Speed: 6.9 mph /  11.1 km/h - 1 mph /  1.6 km/h
Wind Gust: 14.0 mph /  22.5 km/h - -
Wind:- - SE
Pressure: 29.90 in /  1012.4 hPa 29.80 in /  1009 hPa -
Precipitation: 0.01 in /  0.25 mm    
Historical Graphs
 
 
Tabular Data for April 27, 2017
Time Temperature Dew Point Pressure Wind Wind Speed Wind Gust Humidity Rainfall Rate (Hourly)
00:01 53.7 °F /  12.1 °C 52.9 °F /  11.6 °C 29.81 in /  1009.4 hPa Calm     97 % 0.00 in /  0 mm
00:06 53.7 °F /  12.1 °C 52.9 °F /  11.6 °C 29.81 in /  1009.4 hPa Calm     97 % 0.00 in /  0 mm
00:11 53.7 °F /  12.1 °C 52.9 °F /  11.6 °C 29.81 in /  1009.4 hPa Calm     97 % 0.00 in /  0 mm
00:16 53.7 °F /  12.1 °C 52.9 °F /  11.6 °C 29.82 in /  1009.7 hPa Calm     97 % 0.00 in /  0 mm
00:21 53.7 °F /  12.1 °C 52.9 °F /  11.6 °C 29.81 in /  1009.4 hPa Calm     97 % 0.00 in /  0 mm
00:26 53.7 °F /  12.1 °C 52.9 °F /  11.6 °C 29.81 in /  1009.4 hPa Calm     97 % 0.00 in /  0 mm
00:31 53.7 °F /  12.1 °C 52.9 °F /  11.6 °C 29.81 in /  1009.4 hPa Calm     97 % 0.00 in /  0 mm
00:36 53.7 °F /  12.1 °C 52.9 °F /  11.6 °C 29.81 in /  1009.4 hPa Calm     97 % 0.00 in /  0 mm
00:41 53.7 °F /  12.1 °C 52.9 °F /  11.6 °C 29.80 in /  1009 hPa Calm     97 % 0.00 in /  0 mm
00:46 53.7 °F /  12.1 °C 52.9 °F /  11.6 °C 29.80 in /  1009 hPa Calm     97 % 0.00 in /  0 mm
00:51 53.7 °F /  12.1 °C 52.9 °F /  11.6 °C 29.80 in /  1009 hPa Calm     97 % 0.00 in /  0 mm
00:56 53.7 °F /  12.1 °C 52.9 °F /  11.6 °C 29.80 in /  1009 hPa Calm     97 % 0.00 in /  0 mm
01:02 53.7 °F /  12.1 °C 52.9 °F /  11.6 °C 29.80 in /  1009 hPa Calm     97 % 0.00 in /  0 mm
01:06 53.8 °F /  12.1 °C 53.0 °F /  11.7 °C 29.80 in /  1009 hPa Calm     97 % 0.00 in /  0 mm
01:12 53.9 °F /  12.2 °C 53.1 °F /  11.7 °C 29.80 in /  1009 hPa Calm     97 % 0.00 in /  0 mm
01:17 54.1 °F /  12.3 °C 53.5 °F /  11.9 °C 29.80 in /  1009 hPa Calm     98 % 0.00 in /  0 mm
01:22 54.4 °F /  12.4 °C 53.6 °F /  12 °C 29.81 in /  1009.4 hPa WNW 1.2 mph /  1.9 km/h 3.5 mph /  5.6 km/h 97 % 0.00 in /  0 mm
01:27 54.5 °F /  12.5 °C 53.9 °F /  12.2 °C 29.81 in /  1009.4 hPa WNW 0.3 mph /  0.5 km/h 2.3 mph /  3.7 km/h 98 % 0.00 in /  0 mm
01:32 54.6 °F /  12.6 °C 54.0 °F /  12.2 °C 29.81 in /  1009.4 hPa WNW 0.8 mph /  1.3 km/h 2.3 mph /  3.7 km/h 98 % 0.00 in /  0 mm
01:37 54.7 °F /  12.6 °C 54.1 °F /  12.3 °C 29.81 in /  1009.4 hPa WNW 0.2 mph /  0.3 km/h 2.3 mph /  3.7 km/h 98 % 0.00 in /  0 mm
01:42 54.8 °F /  12.7 °C 54.2 °F /  12.3 °C 29.81 in /  1009.4 hPa WNW 1.0 mph /  1.6 km/h 2.3 mph /  3.7 km/h 98 % 0.00 in /  0 mm
01:47 54.8 °F /  12.7 °C 54.2 °F /  12.3 °C 29.82 in /  1009.7 hPa WNW 1.8 mph /  2.9 km/h 3.5 mph /  5.6 km/h 98 % 0.00 in /  0 mm
01:52 54.9 °F /  12.7 °C 54.3 °F /  12.4 °C 29.81 in /  1009.4 hPa WNW 1.1 mph /  1.8 km/h 2.3 mph /  3.7 km/h 98 % 0.00 in /  0 mm
01:57 55.0 °F /  12.8 °C 54.4 °F /  12.4 °C 29.82 in /  1009.7 hPa WNW 0.3 mph /  0.5 km/h 1.2 mph /  1.9 km/h 98 % 0.00 in /  0 mm
02:02 55.0 °F /  12.8 °C 54.4 °F /  12.4 °C 29.81 in /  1009.4 hPa Calm   2.3 mph /  3.7 km/h 98 % 0.00 in /  0 mm
02:08 55.1 °F /  12.8 °C 54.5 °F /  12.5 °C 29.81 in /  1009.4 hPa WNW 1.7 mph /  2.7 km/h 3.5 mph /  5.6 km/h 98 % 0.00 in /  0 mm
02:13 55.1 °F /  12.8 °C 54.5 °F /  12.5 °C 29.81 in /  1009.4 hPa WNW 1.7 mph /  2.7 km/h 3.5 mph /  5.6 km/h 98 % 0.00 in /  0 mm
02:18 55.1 °F /  12.8 °C 54.5 °F /  12.5 °C 29.81 in /  1009.4 hPa Calm   2.3 mph /  3.7 km/h 98 % 0.00 in /  0 mm
02:23 55.2 °F /  12.9 °C 54.6 °F /  12.6 °C 29.82 in /  1009.7 hPa Calm     98 % 0.00 in /  0 mm
02:28 55.2 °F /  12.9 °C 54.6 °F /  12.6 °C 29.82 in /  1009.7 hPa WNW 0.1 mph /  0.2 km/h 1.2 mph /  1.9 km/h 98 % 0.00 in /  0 mm
02:31 55.2 °F /  12.9 °C 54.6 °F /  12.6 °C 29.82 in /  1009.7 hPa Calm   1.2 mph /  1.9 km/h 98 % 0.00 in /  0 mm
02:36 55.2 °F /  12.9 °C 54.6 °F /  12.6 °C 29.82 in /  1009.7 hPa Calm     98 % 0.00 in /  0 mm
02:41 55.2 °F /  12.9 °C 54.6 °F /  12.6 °C 29.82 in /  1009.7 hPa Calm     98 % 0.00 in /  0 mm
02:46 55.3 °F /  12.9 °C 54.7 °F /  12.6 °C 29.81 in /  1009.4 hPa Calm     98 % 0.00 in /  0 mm
02:51 55.3 °F /  12.9 °C 54.7 °F /  12.6 °C 29.82 in /  1009.7 hPa Calm     98 % 0.00 in /  0 mm
02:57 55.3 °F /  12.9 °C 54.7 °F /  12.6 °C 29.82 in /  1009.7 hPa Calm     98 % 0.00 in /  0 mm
03:02 55.4 °F /  13 °C 54.8 °F /  12.7 °C 29.82 in /  1009.7 hPa Calm     98 % 0.00 in /  0 mm
03:07 55.5 °F /  13.1 °C 54.9 °F /  12.7 °C 29.82 in /  1009.7 hPa Calm     98 % 0.00 in /  0 mm
03:12 55.5 °F /  13.1 °C 54.9 °F /  12.7 °C 29.83 in /  1010 hPa Calm     98 % 0.00 in /  0 mm
03:17 55.5 °F /  13.1 °C 54.9 °F /  12.7 °C 29.83 in /  1010 hPa Calm     98 % 0.00 in /  0 mm
03:22 55.5 °F /  13.1 °C 54.9 °F /  12.7 °C 29.83 in /  1010 hPa Calm     98 % 0.00 in /  0 mm
03:27 55.5 °F /  13.1 °C 54.9 °F /  12.7 °C 29.83 in /  1010 hPa Calm     98 % 0.00 in /  0 mm
03:28 55.5 °F /  13.1 °C 54.9 °F /  12.7 °C 29.83 in /  1010 hPa Calm     98 % 0.00 in /  0 mm
03:33 55.5 °F /  13.1 °C 54.9 °F /  12.7 °C 29.82 in /  1009.7 hPa Calm     98 % 0.00 in /  0 mm
03:38 55.6 °F /  13.1 °C 55.0 °F /  12.8 °C 29.83 in /  1010 hPa Calm     98 % 0.00 in /  0 mm
03:43 55.6 °F /  13.1 °C 55.0 °F /  12.8 °C 29.83 in /  1010 hPa Calm     98 % 0.00 in /  0 mm
03:48 55.6 °F /  13.1 °C 55.0 °F /  12.8 °C 29.82 in /  1009.7 hPa Calm     98 % 0.00 in /  0 mm
03:53 55.7 °F /  13.2 °C 55.1 °F /  12.8 °C 29.82 in /  1009.7 hPa Calm     98 % 0.00 in /  0 mm
03:58 55.7 °F /  13.2 °C 55.1 °F /  12.8 °C 29.82 in /  1009.7 hPa Calm     98 % 0.00 in /  0 mm
04:03 55.7 °F /  13.2 °C 55.1 °F /  12.8 °C 29.82 in /  1009.7 hPa Calm     98 % 0.00 in /  0 mm
04:08 55.7 °F /  13.2 °C 55.1 °F /  12.8 °C 29.82 in /  1009.7 hPa Calm     98 % 0.00 in /  0 mm
04:14 55.7 °F /  13.2 °C 55.1 °F /  12.8 °C 29.82 in /  1009.7 hPa Calm     98 % 0.00 in /  0 mm
04:19 55.7 °F /  13.2 °C 55.1 °F /  12.8 °C 29.82 in /  1009.7 hPa Calm     98 % 0.00 in /  0 mm
04:24 55.7 °F /  13.2 °C 55.1 °F /  12.8 °C 29.82 in /  1009.7 hPa Calm     98 % 0.00 in /  0 mm
04:29 55.7 °F /  13.2 °C 55.1 °F /  12.8 °C 29.82 in /  1009.7 hPa Calm     98 % 0.00 in /  0 mm
04:34 55.8 °F /  13.2 °C 55.2 °F /  12.9 °C 29.83 in /  1010 hPa Calm     98 % 0.00 in /  0 mm
04:39 55.8 °F /  13.2 °C 55.2 °F /  12.9 °C 29.83 in /  1010 hPa Calm     98 % 0.00 in /  0 mm
04:44 55.8 °F /  13.2 °C 55.2 °F /  12.9 °C 29.83 in /  1010 hPa Calm     98 % 0.00 in /  0 mm
04:49 55.8 °F /  13.2 °C 55.2 °F /  12.9 °C 29.83 in /  1010 hPa Calm     98 % 0.00 in /  0 mm
04:54 55.8 °F /  13.2 °C 55.2 °F /  12.9 °C 29.83 in /  1010 hPa Calm     98 % 0.00 in /  0 mm
04:59 55.9 °F /  13.3 °C 55.3 °F /  12.9 °C 29.83 in /  1010 hPa Calm     98 % 0.00 in /  0 mm
05:04 55.9 °F /  13.3 °C 55.3 °F /  12.9 °C 29.83 in /  1010 hPa Calm     98 % 0.00 in /  0 mm
05:10 55.9 °F /  13.3 °C 55.3 °F /  12.9 °C 29.83 in /  1010 hPa Calm     98 % 0.00 in /  0 mm
05:15 56.0 °F /  13.3 °C 55.4 °F /  13 °C 29.83 in /  1010 hPa Calm     98 % 0.00 in /  0 mm
05:20 56.0 °F /  13.3 °C 55.4 °F /  13 °C 29.83 in /  1010 hPa Calm     98 % 0.00 in /  0 mm
05:25 56.0 °F /  13.3 °C 55.4 °F /  13 °C 29.83 in /  1010 hPa Calm     98 % 0.00 in /  0 mm
05:30 56.0 °F /  13.3 °C 55.4 °F /  13 °C 29.83 in /  1010 hPa Calm     98 % 0.00 in /  0 mm
05:35 56.0 °F /  13.3 °C 55.4 °F /  13 °C 29.84 in /  1010.4 hPa Calm     98 % 0.00 in /  0 mm
05:40 56.0 °F /  13.3 °C 55.4 °F /  13 °C 29.84 in /  1010.4 hPa Calm     98 % 0.00 in /  0 mm
05:45 55.9 °F /  13.3 °C 55.3 °F /  12.9 °C 29.84 in /  1010.4 hPa Calm     98 % 0.00 in /  0 mm
05:50 55.9 °F /  13.3 °C 55.3 °F /  12.9 °C 29.84 in /  1010.4 hPa Calm     98 % 0.00 in /  0 mm
05:51 55.9 °F /  13.3 °C 55.3 °F /  12.9 °C 29.84 in /  1010.4 hPa Calm     98 % 0.00 in /  0 mm
05:56 55.8 °F /  13.2 °C 55.2 °F /  12.9 °C 29.84 in /  1010.4 hPa Calm     98 % 0.00 in /  0 mm
06:02 55.8 °F /  13.2 °C 55.2 °F /  12.9 °C 29.84 in /  1010.4 hPa Calm     98 % 0.00 in /  0 mm
06:07 55.7 °F /  13.2 °C 55.1 °F /  12.8 °C 29.85 in /  1010.7 hPa Calm     98 % 0.00 in /  0 mm
06:12 55.7 °F /  13.2 °C 55.1 °F /  12.8 °C 29.85 in /  1010.7 hPa Calm     98 % 0.00 in /  0 mm
06:17 55.7 °F /  13.2 °C 55.1 °F /  12.8 °C 29.85 in /  1010.7 hPa Calm     98 % 0.00 in /  0 mm
06:22 55.7 °F /  13.2 °C 55.1 °F /  12.8 °C 29.85 in /  1010.7 hPa Calm     98 % 0.00 in /  0 mm
06:27 55.6 °F /  13.1 °C 55.0 °F /  12.8 °C 29.85 in /  1010.7 hPa Calm     98 % 0.00 in /  0 mm
06:32 55.6 °F /  13.1 °C 55.0 °F /  12.8 °C 29.85 in /  1010.7 hPa Calm     98 % 0.00 in /  0 mm
06:37 55.6 °F /  13.1 °C 55.0 °F /  12.8 °C 29.85 in /  1010.7 hPa Calm     98 % 0.00 in /  0 mm
06:42 55.7 °F /  13.2 °C 55.1 °F /  12.8 °C 29.86 in /  1011.1 hPa Calm     98 % 0.00 in /  0 mm
06:47 55.7 °F /  13.2 °C 55.1 °F /  12.8 °C 29.86 in /  1011.1 hPa Calm     98 % 0.00 in /  0 mm
06:52 55.7 °F /  13.2 °C 55.1 °F /  12.8 °C 29.86 in /  1011.1 hPa Calm     98 % 0.00 in /  0 mm
06:57 55.7 °F /  13.2 °C 55.1 °F /  12.8 °C 29.87 in /  1011.4 hPa Calm     98 % 0.00 in /  0 mm
07:03 55.7 °F /  13.2 °C 55.1 °F /  12.8 °C 29.87 in /  1011.4 hPa Calm     98 % 0.00 in /  0 mm
07:08 55.8 °F /  13.2 °C 55.2 °F /  12.9 °C 29.87 in /  1011.4 hPa Calm     98 % 0.00 in /  0 mm
07:13 55.8 °F /  13.2 °C 55.2 °F /  12.9 °C 29.87 in /  1011.4 hPa Calm     98 % 0.00 in /  0 mm
07:23 56.0 °F /  13.3 °C 55.4 °F /  13 °C 29.87 in /  1011.4 hPa Calm     98 % 0.00 in /  0 mm
07:28 56.1 °F /  13.4 °C 55.5 °F /  13.1 °C 29.87 in /  1011.4 hPa Calm     98 % 0.00 in /  0 mm
07:33 56.4 °F /  13.6 °C 55.8 °F /  13.2 °C 29.88 in /  1011.7 hPa Calm     98 % 0.00 in /  0 mm
07:38 56.7 °F /  13.7 °C 56.1 °F /  13.4 °C 29.88 in /  1011.7 hPa Calm     98 % 0.00 in /  0 mm
07:43 56.9 °F /  13.8 °C 56.6 °F /  13.7 °C 29.88 in /  1011.7 hPa Calm     99 % 0.00 in /  0 mm
07:48 57.1 °F /  13.9 °C 56.5 °F /  13.6 °C 29.88 in /  1011.7 hPa Calm     98 % 0.00 in /  0 mm
07:53 57.3 °F /  14.1 °C 57.0 °F /  13.9 °C 29.88 in /  1011.7 hPa Calm     99 % 0.00 in /  0 mm
07:59 57.6 °F /  14.2 °C 57.3 °F /  14.1 °C 29.88 in /  1011.7 hPa Calm     99 % 0.00 in /  0 mm
08:04 57.8 °F /  14.3 °C 57.2 °F /  14 °C 29.88 in /  1011.7 hPa Calm     98 % 0.00 in /  0 mm
08:09 58.0 °F /  14.4 °C 57.7 °F /  14.3 °C 29.88 in /  1011.7 hPa Calm     99 % 0.00 in /  0 mm
08:14 58.1 °F /  14.5 °C 57.8 °F /  14.3 °C 29.88 in /  1011.7 hPa Calm     99 % 0.00 in /  0 mm
08:19 58.3 °F /  14.6 °C 57.7 °F /  14.3 °C 29.89 in /  1012.1 hPa Calm     98 % 0.00 in /  0 mm
08:24 58.3 °F /  14.6 °C 57.7 °F /  14.3 °C 29.89 in /  1012.1 hPa Calm     98 % 0.00 in /  0 mm
08:29 58.3 °F /  14.6 °C 57.7 °F /  14.3 °C 29.89 in /  1012.1 hPa Calm     98 % 0.00 in /  0 mm
08:34 58.4 °F /  14.7 °C 57.8 °F /  14.3 °C 29.89 in /  1012.1 hPa Calm     98 % 0.00 in /  0 mm
08:39 58.4 °F /  14.7 °C 57.8 °F /  14.3 °C 29.89 in /  1012.1 hPa Calm     98 % 0.00 in /  0 mm
08:45 58.3 °F /  14.6 °C 57.7 °F /  14.3 °C 29.89 in /  1012.1 hPa Calm     98 % 0.00 in /  0 mm
08:50 58.2 °F /  14.6 °C 57.6 °F /  14.2 °C 29.89 in /  1012.1 hPa Calm     98 % 0.00 in /  0 mm
08:52 58.3 °F /  14.6 °C 57.7 °F /  14.3 °C 29.88 in /  1011.7 hPa Calm     98 % 0.00 in /  0 mm
08:57 58.3 °F /  14.6 °C 57.7 °F /  14.3 °C 29.89 in /  1012.1 hPa Calm     98 % 0.00 in /  0 mm
09:02 58.4 °F /  14.7 °C 57.8 °F /  14.3 °C 29.89 in /  1012.1 hPa Calm     98 % 0.00 in /  0 mm
09:07 58.5 °F /  14.7 °C 57.9 °F /  14.4 °C 29.89 in /  1012.1 hPa Calm     98 % 0.00 in /  0 mm
09:12 58.6 °F /  14.8 °C 58.3 °F /  14.6 °C 29.89 in /  1012.1 hPa Calm     99 % 0.00 in /  0 mm
09:17 58.7 °F /  14.8 °C 58.4 °F /  14.7 °C 29.90 in /  1012.4 hPa Calm     99 % 0.00 in /  0 mm
09:23 58.8 °F /  14.9 °C 58.5 °F /  14.7 °C 29.90 in /  1012.4 hPa Calm     99 % 0.00 in /  0 mm
09:28 58.9 °F /  14.9 °C 58.6 °F /  14.8 °C 29.90 in /  1012.4 hPa Calm     99 % 0.00 in /  0 mm
09:33 58.9 °F /  14.9 °C 58.3 °F /  14.6 °C 29.90 in /  1012.4 hPa Calm     98 % 0.00 in /  0 mm
09:38 59.0 °F /  15 °C 58.4 °F /  14.7 °C 29.90 in /  1012.4 hPa Calm     98 % 0.00 in /  0 mm
09:43 59.1 °F /  15.1 °C 58.5 °F /  14.7 °C 29.90 in /  1012.4 hPa Calm     98 % 0.00 in /  0 mm
09:48 59.2 °F /  15.1 °C 58.9 °F /  14.9 °C 29.90 in /  1012.4 hPa Calm     99 % 0.00 in /  0 mm
09:53 59.3 °F /  15.2 °C 59.0 °F /  15 °C 29.90 in /  1012.4 hPa Calm     99 % 0.00 in /  0 mm
09:58 59.5 °F /  15.3 °C 59.2 °F /  15.1 °C 29.90 in /  1012.4 hPa Calm     99 % 0.00 in /  0 mm
10:03 59.6 °F /  15.3 °C 59.0 °F /  15 °C 29.90 in /  1012.4 hPa Calm     98 % 0.00 in /  0 mm
10:09 59.7 °F /  15.4 °C 59.1 °F /  15.1 °C 29.89 in /  1012.1 hPa WNW 0.1 mph /  0.2 km/h   98 % 0.00 in /  0 mm
10:13 60.1 °F /  15.6 °C 59.8 °F /  15.4 °C 29.89 in /  1012.1 hPa WNW 0.7 mph /  1.1 km/h 1.2 mph /  1.9 km/h 99 % 0.00 in /  0 mm
10:14 60.1 °F /  15.6 °C 59.8 °F /  15.4 °C 29.89 in /  1012.1 hPa WNW 0.1 mph /  0.2 km/h 2.3 mph /  3.7 km/h 99 % 0.00 in /  0 mm
10:20 60.4 °F /  15.8 °C 60.1 °F /  15.6 °C 29.89 in /  1012.1 hPa Calm   3.5 mph /  5.6 km/h 99 % 0.00 in /  0 mm
10:25 60.5 °F /  15.8 °C 60.2 °F /  15.7 °C 29.90 in /  1012.4 hPa Calm     99 % 0.00 in /  0 mm
10:30 60.6 °F /  15.9 °C 60.3 °F /  15.7 °C 29.90 in /  1012.4 hPa WSW 1.3 mph /  2.1 km/h 2.3 mph /  3.7 km/h 99 % 0.00 in /  0 mm
10:35 60.7 °F /  15.9 °C 60.4 °F /  15.8 °C 29.90 in /  1012.4 hPa Calm   1.2 mph /  1.9 km/h 99 % 0.00 in /  0 mm
10:40 60.8 °F /  16 °C 60.5 °F /  15.8 °C 29.90 in /  1012.4 hPa WSW 0.3 mph /  0.5 km/h 1.2 mph /  1.9 km/h 99 % 0.00 in /  0 mm
10:45 60.9 °F /  16.1 °C 60.3 °F /  15.7 °C 29.90 in /  1012.4 hPa Calm     98 % 0.00 in /  0 mm
10:50 61.1 °F /  16.2 °C 60.8 °F /  16 °C 29.90 in /  1012.4 hPa Calm     99 % 0.00 in /  0 mm
10:55 61.2 °F /  16.2 °C 60.9 °F /  16.1 °C 29.90 in /  1012.4 hPa Calm   1.2 mph /  1.9 km/h 99 % 0.00 in /  0 mm
11:00 61.4 °F /  16.3 °C 61.1 °F /  16.2 °C 29.89 in /  1012.1 hPa WSW 0.1 mph /  0.2 km/h 1.2 mph /  1.9 km/h 99 % 0.00 in /  0 mm
11:05 61.7 °F /  16.5 °C 61.4 °F /  16.3 °C 29.89 in /  1012.1 hPa Calm   1.2 mph /  1.9 km/h 99 % 0.00 in /  0 mm
11:10 62.3 °F /  16.8 °C 62.0 °F /  16.7 °C 29.89 in /  1012.1 hPa Calm     99 % 0.00 in /  0 mm
11:11 62.4 °F /  16.9 °C 62.1 °F /  16.7 °C 29.89 in /  1012.1 hPa Calm     99 % 0.00 in /  0 mm
11:16 62.7 °F /  17.1 °C 62.4 °F /  16.9 °C 29.88 in /  1011.7 hPa WSW 0.1 mph /  0.2 km/h 2.3 mph /  3.7 km/h 99 % 0.00 in /  0 mm
11:21 62.7 °F /  17.1 °C 62.4 °F /  16.9 °C 29.89 in /  1012.1 hPa NW 2.0 mph /  3.2 km/h 4.0 mph /  6.4 km/h 99 % 0.00 in /  0 mm
11:26 62.5 °F /  16.9 °C 61.9 °F /  16.6 °C 29.89 in /  1012.1 hPa NNW 0.6 mph /  1 km/h 3.5 mph /  5.6 km/h 98 % 0.00 in /  0 mm
11:27 62.5 °F /  16.9 °C 61.9 °F /  16.6 °C 29.89 in /  1012.1 hPa NNW 0.1 mph /  0.2 km/h 1.2 mph /  1.9 km/h 98 % 0.00 in /  0 mm
11:32 62.6 °F /  17 °C 62.0 °F /  16.7 °C 29.88 in /  1011.7 hPa ENE 2.4 mph /  3.9 km/h 4.0 mph /  6.4 km/h 98 % 0.00 in /  0 mm
11:37 62.6 °F /  17 °C 62.0 °F /  16.7 °C 29.88 in /  1011.7 hPa NNE 0.4 mph /  0.6 km/h 2.3 mph /  3.7 km/h 98 % 0.00 in /  0 mm
11:42 62.8 °F /  17.1 °C 62.2 °F /  16.8 °C 29.88 in /  1011.7 hPa ENE 1.5 mph /  2.4 km/h 3.5 mph /  5.6 km/h 98 % 0.00 in /  0 mm
11:48 62.7 °F /  17.1 °C 61.8 °F /  16.6 °C 29.88 in /  1011.7 hPa ENE 3.0 mph /  4.8 km/h 4.6 mph /  7.4 km/h 97 % 0.00 in /  0 mm
11:53 62.8 °F /  17.1 °C 61.9 °F /  16.6 °C 29.89 in /  1012.1 hPa ENE 2.1 mph /  3.4 km/h 3.5 mph /  5.6 km/h 97 % 0.00 in /  0 mm
11:58 62.8 °F /  17.1 °C 61.6 °F /  16.4 °C 29.89 in /  1012.1 hPa ENE 2.1 mph /  3.4 km/h 3.5 mph /  5.6 km/h 96 % 0.01 in /  0.25 mm
12:03 62.9 °F /  17.2 °C 61.7 °F /  16.5 °C 29.89 in /  1012.1 hPa NNE 1.5 mph /  2.4 km/h 5.0 mph /  8 km/h 96 % 0.01 in /  0.25 mm
12:08 62.9 °F /  17.2 °C 61.4 °F /  16.3 °C 29.89 in /  1012.1 hPa Calm   1.2 mph /  1.9 km/h 95 % 0.01 in /  0.25 mm
12:13 63.0 °F /  17.2 °C 61.5 °F /  16.4 °C 29.89 in /  1012.1 hPa NNE 0.4 mph /  0.6 km/h 2.3 mph /  3.7 km/h 95 % 0.01 in /  0.25 mm
12:18 62.9 °F /  17.2 °C 61.1 °F /  16.2 °C 29.89 in /  1012.1 hPa NNE 0.2 mph /  0.3 km/h 2.0 mph /  3.2 km/h 94 % 0.01 in /  0.25 mm
12:23 62.8 °F /  17.1 °C 60.7 °F /  15.9 °C 29.89 in /  1012.1 hPa NNE 0.1 mph /  0.2 km/h 2.3 mph /  3.7 km/h 93 % 0.01 in /  0.25 mm
12:28 62.9 °F /  17.2 °C 61.1 °F /  16.2 °C 29.89 in /  1012.1 hPa NNE 0.7 mph /  1.1 km/h 3.5 mph /  5.6 km/h 94 % 0.01 in /  0.25 mm
12:33 63.1 °F /  17.3 °C 61.3 °F /  16.3 °C 29.89 in /  1012.1 hPa NNE 0.3 mph /  0.5 km/h 2.3 mph /  3.7 km/h 94 % 0.01 in /  0.25 mm
12:38 63.3 °F /  17.4 °C 61.2 °F /  16.2 °C 29.89 in /  1012.1 hPa ENE 1.5 mph /  2.4 km/h 2.3 mph /  3.7 km/h 93 % 0.01 in /  0.25 mm
12:43 63.0 °F /  17.2 °C 60.3 °F /  15.7 °C 29.89 in /  1012.1 hPa NE 2.5 mph /  4 km/h 3.5 mph /  5.6 km/h 91 % 0.01 in /  0.25 mm
12:48 62.7 °F /  17.1 °C 59.7 °F /  15.4 °C 29.89 in /  1012.1 hPa NE 1.2 mph /  1.9 km/h 3.0 mph /  4.8 km/h 90 % 0.01 in /  0.25 mm
12:53 62.7 °F /  17.1 °C 60.0 °F /  15.6 °C 29.89 in /  1012.1 hPa Calm   1.2 mph /  1.9 km/h 91 % 0.01 in /  0.25 mm
12:58 62.5 °F /  16.9 °C 59.8 °F /  15.4 °C 29.89 in /  1012.1 hPa NNE 0.6 mph /  1 km/h 2.3 mph /  3.7 km/h 91 % 0.00 in /  0 mm
13:04 62.6 °F /  17 °C 60.5 °F /  15.8 °C 29.89 in /  1012.1 hPa NNE 0.5 mph /  0.8 km/h 3.5 mph /  5.6 km/h 93 % 0.00 in /  0 mm
13:09 62.6 °F /  17 °C 60.2 °F /  15.7 °C 29.89 in /  1012.1 hPa NNE 0.1 mph /  0.2 km/h 1.2 mph /  1.9 km/h 92 % 0.00 in /  0 mm
13:11 62.7 °F /  17.1 °C 60.3 °F /  15.7 °C 29.89 in /  1012.1 hPa NNE 0.3 mph /  0.5 km/h 1.2 mph /  1.9 km/h 92 % 0.00 in /  0 mm
13:16 62.3 °F /  16.8 °C 59.3 °F /  15.2 °C 29.89 in /  1012.1 hPa ENE 3.0 mph /  4.8 km/h 3.5 mph /  5.6 km/h 90 % 0.00 in /  0 mm
13:21 61.8 °F /  16.6 °C 58.8 °F /  14.9 °C 29.89 in /  1012.1 hPa ENE 0.6 mph /  1 km/h 1.2 mph /  1.9 km/h 90 % 0.00 in /  0 mm
13:26 61.7 °F /  16.5 °C 58.7 °F /  14.8 °C 29.88 in /  1011.7 hPa ENE 0.7 mph /  1.1 km/h 1.2 mph /  1.9 km/h 90 % 0.00 in /  0 mm
13:31 61.9 °F /  16.6 °C 59.5 °F /  15.3 °C 29.88 in /  1011.7 hPa ENE 1.2 mph /  1.9 km/h 3.5 mph /  5.6 km/h 92 % 0.00 in /  0 mm
13:36 62.2 °F /  16.8 °C 59.8 °F /  15.4 °C 29.88 in /  1011.7 hPa ENE 2.2 mph /  3.5 km/h 3.5 mph /  5.6 km/h 92 % 0.00 in /  0 mm
13:41 62.0 °F /  16.7 °C 59.0 °F /  15 °C 29.88 in /  1011.7 hPa ENE 4.1 mph /  6.6 km/h 4.6 mph /  7.4 km/h 90 % 0.00 in /  0 mm
13:46 61.5 °F /  16.4 °C 58.2 °F /  14.6 °C 29.88 in /  1011.7 hPa NE 3.1 mph /  5 km/h 4.6 mph /  7.4 km/h 89 % 0.00 in /  0 mm
13:51 61.5 °F /  16.4 °C 58.8 °F /  14.9 °C 29.88 in /  1011.7 hPa ENE 2.0 mph /  3.2 km/h 3.5 mph /  5.6 km/h 91 % 0.00 in /  0 mm
13:57 61.3 °F /  16.3 °C 58.3 °F /  14.6 °C 29.88 in /  1011.7 hPa ENE 1.4 mph /  2.3 km/h 3.5 mph /  5.6 km/h 90 % 0.00 in /  0 mm
14:02 61.3 °F /  16.3 °C 58.7 °F /  14.8 °C 29.88 in /  1011.7 hPa ENE 2.0 mph /  3.2 km/h 4.6 mph /  7.4 km/h 91 % 0.00 in /  0 mm
14:07 61.5 °F /  16.4 °C 59.2 °F /  15.1 °C 29.88 in /  1011.7 hPa NNE 3.0 mph /  4.8 km/h 4.6 mph /  7.4 km/h 92 % 0.00 in /  0 mm
14:12 62.1 °F /  16.7 °C 60.1 °F /  15.6 °C 29.88 in /  1011.7 hPa ENE 1.5 mph /  2.4 km/h 2.3 mph /  3.7 km/h 93 % 0.00 in /  0 mm
14:17 62.3 °F /  16.8 °C 59.9 °F /  15.5 °C 29.88 in /  1011.7 hPa ENE 3.0 mph /  4.8 km/h 5.0 mph /  8 km/h 92 % 0.00 in /  0 mm
14:22 62.3 °F /  16.8 °C 59.9 °F /  15.5 °C 29.88 in /  1011.7 hPa ENE 3.3 mph /  5.3 km/h 5.0 mph /  8 km/h 92 % 0.00 in /  0 mm
14:27 62.3 °F /  16.8 °C 59.6 °F /  15.3 °C 29.88 in /  1011.7 hPa NE 3.6 mph /  5.8 km/h 5.0 mph /  8 km/h 91 % 0.00 in /  0 mm
14:32 62.4 °F /  16.9 °C 60.0 °F /  15.6 °C 29.87 in /  1011.4 hPa ENE 2.3 mph /  3.7 km/h 3.5 mph /  5.6 km/h 92 % 0.00 in /  0 mm
14:37 62.5 °F /  16.9 °C 60.1 °F /  15.6 °C 29.87 in /  1011.4 hPa ENE 2.2 mph /  3.5 km/h 4.6 mph /  7.4 km/h 92 % 0.00 in /  0 mm
14:42 62.7 °F /  17.1 °C 60.3 °F /  15.7 °C 29.87 in /  1011.4 hPa ENE 1.6 mph /  2.6 km/h 3.5 mph /  5.6 km/h 92 % 0.00 in /  0 mm
14:47 63.0 °F /  17.2 °C 60.6 °F /  15.9 °C 29.87 in /  1011.4 hPa ENE 2.4 mph /  3.9 km/h 4.0 mph /  6.4 km/h 92 % 0.00 in /  0 mm
14:53 63.1 °F /  17.3 °C 60.1 °F /  15.6 °C 29.87 in /  1011.4 hPa NE 0.4 mph /  0.6 km/h 3.5 mph /  5.6 km/h 90 % 0.00 in /  0 mm
14:58 63.2 °F /  17.3 °C 60.2 °F /  15.7 °C 29.87 in /  1011.4 hPa NE 0.9 mph /  1.4 km/h 2.3 mph /  3.7 km/h 90 % 0.00 in /  0 mm
15:03 63.3 °F /  17.4 °C 60.6 °F /  15.9 °C 29.86 in /  1011.1 hPa ENE 0.7 mph /  1.1 km/h 3.5 mph /  5.6 km/h 91 % 0.00 in /  0 mm
15:08 63.2 °F /  17.3 °C 60.2 °F /  15.7 °C 29.86 in /  1011.1 hPa ENE 3.8 mph /  6.1 km/h 6.9 mph /  11.1 km/h 90 % 0.00 in /  0 mm
15:13 63.3 °F /  17.4 °C 60.3 °F /  15.7 °C 29.86 in /  1011.1 hPa ENE 0.4 mph /  0.6 km/h 3.0 mph /  4.8 km/h 90 % 0.00 in /  0 mm
15:18 63.6 °F /  17.6 °C 60.9 °F /  16.1 °C 29.86 in /  1011.1 hPa ESE 1.5 mph /  2.4 km/h 3.5 mph /  5.6 km/h 91 % 0.00 in /  0 mm
15:23 64.1 °F /  17.8 °C 61.1 °F /  16.2 °C 29.86 in /  1011.1 hPa SE 0.6 mph /  1 km/h 3.5 mph /  5.6 km/h 90 % 0.00 in /  0 mm
15:24 64.3 °F /  17.9 °C 61.0 °F /  16.1 °C 29.86 in /  1011.1 hPa SSE 2.6 mph /  4.2 km/h 3.5 mph /  5.6 km/h 89 % 0.00 in /  0 mm
15:30 64.8 °F /  18.2 °C 61.2 °F /  16.2 °C 29.86 in /  1011.1 hPa SSE 3.4 mph /  5.5 km/h 5.0 mph /  8 km/h 88 % 0.00 in /  0 mm
15:35 65.3 °F /  18.5 °C 61.3 °F /  16.3 °C 29.86 in /  1011.1 hPa SSW 3.4 mph /  5.5 km/h 7.0 mph /  11.3 km/h 87 % 0.00 in /  0 mm
15:40 65.7 °F /  18.7 °C 61.1 °F /  16.2 °C 29.86 in /  1011.1 hPa SSE 2.8 mph /  4.5 km/h 5.8 mph /  9.3 km/h 85 % 0.00 in /  0 mm
15:45 66.1 °F /  18.9 °C 60.8 °F /  16 °C 29.86 in /  1011.1 hPa South 3.0 mph /  4.8 km/h 9.2 mph /  14.8 km/h 83 % 0.00 in /  0 mm
15:49 66.4 °F /  19.1 °C 61.1 °F /  16.2 °C 29.86 in /  1011.1 hPa SSE 2.2 mph /  3.5 km/h 6.0 mph /  9.7 km/h 83 % 0.00 in /  0 mm
15:54 66.6 °F /  19.2 °C 60.9 °F /  16.1 °C 29.86 in /  1011.1 hPa SSW 2.9 mph /  4.7 km/h 4.6 mph /  7.4 km/h 82 % 0.00 in /  0 mm
15:59 66.8 °F /  19.3 °C 61.1 °F /  16.2 °C 29.85 in /  1010.7 hPa SW 1.2 mph /  1.9 km/h 3.5 mph /  5.6 km/h 82 % 0.00 in /  0 mm
16:04 66.7 °F /  19.3 °C 60.3 °F /  15.7 °C 29.86 in /  1011.1 hPa SE 3.9 mph /  6.3 km/h 10.4 mph /  16.7 km/h 80 % 0.00 in /  0 mm
16:09 66.6 °F /  19.2 °C 60.2 °F /  15.7 °C 29.86 in /  1011.1 hPa SE 3.0 mph /  4.8 km/h 6.9 mph /  11.1 km/h 80 % 0.00 in /  0 mm
16:14 66.6 °F /  19.2 °C 60.2 °F /  15.7 °C 29.85 in /  1010.7 hPa South 4.2 mph /  6.8 km/h 8.1 mph /  13 km/h 80 % 0.00 in /  0 mm
16:19 66.6 °F /  19.2 °C 60.6 °F /  15.9 °C 29.85 in /  1010.7 hPa SSW 0.7 mph /  1.1 km/h 3.5 mph /  5.6 km/h 81 % 0.00 in /  0 mm
16:25 66.7 °F /  19.3 °C 60.7 °F /  15.9 °C 29.85 in /  1010.7 hPa SSW 1.9 mph /  3.1 km/h 8.1 mph /  13 km/h 81 % 0.00 in /  0 mm
16:30 66.7 °F /  19.3 °C 60.3 °F /  15.7 °C 29.85 in /  1010.7 hPa SSE 3.8 mph /  6.1 km/h 8.1 mph /  13 km/h 80 % 0.00 in /  0 mm
16:35 66.6 °F /  19.2 °C 60.6 °F /  15.9 °C 29.85 in /  1010.7 hPa SSE 3.1 mph /  5 km/h 4.6 mph /  7.4 km/h 81 % 0.00 in /  0 mm
16:40 66.4 °F /  19.1 °C 60.0 °F /  15.6 °C 29.85 in /  1010.7 hPa SSE 4.1 mph /  6.6 km/h 9.2 mph /  14.8 km/h 80 % 0.00 in /  0 mm
16:45 66.1 °F /  18.9 °C 59.7 °F /  15.4 °C 29.85 in /  1010.7 hPa South 2.4 mph /  3.9 km/h 4.6 mph /  7.4 km/h 80 % 0.00 in /  0 mm
16:50 66.0 °F /  18.9 °C 59.3 °F /  15.2 °C 29.85 in /  1010.7 hPa South 4.0 mph /  6.4 km/h 6.9 mph /  11.1 km/h 79 % 0.00 in /  0 mm
16:55 65.8 °F /  18.8 °C 59.5 °F /  15.3 °C 29.85 in /  1010.7 hPa South 2.2 mph /  3.5 km/h 5.0 mph /  8 km/h 80 % 0.00 in /  0 mm
17:00 65.7 °F /  18.7 °C 59.4 °F /  15.2 °C 29.84 in /  1010.4 hPa SSE 6.9 mph /  11.1 km/h 11.0 mph /  17.7 km/h 80 % 0.00 in /  0 mm
17:05 65.5 °F /  18.6 °C 59.2 °F /  15.1 °C 29.84 in /  1010.4 hPa ESE 5.8 mph /  9.3 km/h 11.5 mph /  18.5 km/h 80 % 0.00 in /  0 mm
17:10 65.5 °F /  18.6 °C 59.5 °F /  15.3 °C 29.85 in /  1010.7 hPa ESE 5.5 mph /  8.9 km/h 8.0 mph /  12.9 km/h 81 % 0.00 in /  0 mm
17:16 65.4 °F /  18.6 °C 59.1 °F /  15.1 °C 29.85 in /  1010.7 hPa SSE 6.0 mph /  9.7 km/h 12.0 mph /  19.3 km/h 80 % 0.00 in /  0 mm
17:21 65.2 °F /  18.4 °C 59.2 °F /  15.1 °C 29.85 in /  1010.7 hPa SSE 2.5 mph /  4 km/h 8.1 mph /  13 km/h 81 % 0.00 in /  0 mm
17:26 65.2 °F /  18.4 °C 59.2 °F /  15.1 °C 29.85 in /  1010.7 hPa Calm   5.0 mph /  8 km/h 81 % 0.00 in /  0 mm
17:31 65.2 °F /  18.4 °C 59.2 °F /  15.1 °C 29.86 in /  1011.1 hPa SSE 5.0 mph /  8 km/h 8.0 mph /  12.9 km/h 81 % 0.00 in /  0 mm
17:36 64.9 °F /  18.3 °C 58.9 °F /  14.9 °C 29.86 in /  1011.1 hPa SSE 5.0 mph /  8 km/h 10.0 mph /  16.1 km/h 81 % 0.00 in /  0 mm
17:41 64.8 °F /  18.2 °C 59.2 °F /  15.1 °C 29.86 in /  1011.1 hPa SE 6.0 mph /  9.7 km/h 12.0 mph /  19.3 km/h 82 % 0.00 in /  0 mm
17:46 64.8 °F /  18.2 °C 59.2 °F /  15.1 °C 29.86 in /  1011.1 hPa SSE 1.0 mph /  1.6 km/h 8.0 mph /  12.9 km/h 82 % 0.00 in /  0 mm
17:51 64.8 °F /  18.2 °C 59.5 °F /  15.3 °C 29.86 in /  1011.1 hPa South 2.0 mph /  3.2 km/h 7.0 mph /  11.3 km/h 83 % 0.00 in /  0 mm
17:56 64.7 °F /  18.2 °C 59.4 °F /  15.2 °C 29.87 in /  1011.4 hPa SSW 5.0 mph /  8 km/h 8.0 mph /  12.9 km/h 83 % 0.00 in /  0 mm
18:01 64.3 °F /  17.9 °C 58.7 °F /  14.8 °C 29.87 in /  1011.4 hPa South 5.1 mph /  8.2 km/h 9.2 mph /  14.8 km/h 82 % 0.00 in /  0 mm
18:06 63.8 °F /  17.7 °C 58.8 °F /  14.9 °C 29.87 in /  1011.4 hPa SSE 2.0 mph /  3.2 km/h 14.0 mph /  22.5 km/h 84 % 0.00 in /  0 mm
18:11 63.4 °F /  17.4 °C 58.5 °F /  14.7 °C 29.87 in /  1011.4 hPa SSE 5.0 mph /  8 km/h 9.0 mph /  14.5 km/h 84 % 0.00 in /  0 mm
18:16 63.2 °F /  17.3 °C 58.6 °F /  14.8 °C 29.87 in /  1011.4 hPa SSE 3.0 mph /  4.8 km/h 9.0 mph /  14.5 km/h 85 % 0.00 in /  0 mm
18:21 63.1 °F /  17.3 °C 58.8 °F /  14.9 °C 29.87 in /  1011.4 hPa SSE 1.0 mph /  1.6 km/h 6.0 mph /  9.7 km/h 86 % 0.00 in /  0 mm
18:26 63.0 °F /  17.2 °C 58.7 °F /  14.8 °C 29.87 in /  1011.4 hPa SSE 1.0 mph /  1.6 km/h 6.0 mph /  9.7 km/h 86 % 0.00 in /  0 mm
18:31 62.9 °F /  17.2 °C 58.6 °F /  14.8 °C 29.87 in /  1011.4 hPa SSE 2.0 mph /  3.2 km/h 12.0 mph /  19.3 km/h 86 % 0.00 in /  0 mm
18:36 62.8 °F /  17.1 °C 58.9 °F /  14.9 °C 29.87 in /  1011.4 hPa SSE 3.0 mph /  4.8 km/h 8.0 mph /  12.9 km/h 87 % 0.00 in /  0 mm
18:41 62.7 °F /  17.1 °C 58.8 °F /  14.9 °C 29.87 in /  1011.4 hPa SSE 3.0 mph /  4.8 km/h 9.0 mph /  14.5 km/h 87 % 0.00 in /  0 mm
18:46 62.6 °F /  17 °C 58.7 °F /  14.8 °C 29.88 in /  1011.7 hPa SSE 5.0 mph /  8 km/h 9.0 mph /  14.5 km/h 87 % 0.00 in /  0 mm
18:51 62.5 °F /  16.9 °C 58.6 °F /  14.8 °C 29.88 in /  1011.7 hPa SSE 3.1 mph /  5 km/h 6.0 mph /  9.7 km/h 87 % 0.00 in /  0 mm
18:56 62.4 °F /  16.9 °C 58.8 °F /  14.9 °C 29.88 in /  1011.7 hPa SSE 1.0 mph /  1.6 km/h 4.0 mph /  6.4 km/h 88 % 0.00 in /  0 mm
19:01 62.3 °F /  16.8 °C 58.7 °F /  14.8 °C 29.87 in /  1011.4 hPa SSE 2.5 mph /  4 km/h 4.0 mph /  6.4 km/h 88 % 0.00 in /  0 mm
19:06 62.2 °F /  16.8 °C 58.6 °F /  14.8 °C 29.87 in /  1011.4 hPa SSE 1.7 mph /  2.7 km/h 5.8 mph /  9.3 km/h 88 % 0.00 in /  0 mm
19:11 62.1 °F /  16.7 °C 58.5 °F /  14.7 °C 29.87 in /  1011.4 hPa SSE 2.5 mph /  4 km/h 3.5 mph /  5.6 km/h 88 % 0.00 in /  0 mm
19:15 62.0 °F /  16.7 °C 58.4 °F /  14.7 °C 29.87 in /  1011.4 hPa SSE 2.7 mph /  4.3 km/h 5.0 mph /  8 km/h 88 % 0.00 in /  0 mm
19:20 61.8 °F /  16.6 °C 58.5 °F /  14.7 °C 29.86 in /  1011.1 hPa South 1.4 mph /  2.3 km/h 5.8 mph /  9.3 km/h 89 % 0.00 in /  0 mm
19:25 61.7 °F /  16.5 °C 58.4 °F /  14.7 °C 29.86 in /  1011.1 hPa SE 2.2 mph /  3.5 km/h 4.6 mph /  7.4 km/h 89 % 0.00 in /  0 mm
19:31 61.7 °F /  16.5 °C 58.4 °F /  14.7 °C 29.87 in /  1011.4 hPa Calm   4.0 mph /  6.4 km/h 89 % 0.00 in /  0 mm
19:36 61.6 °F /  16.4 °C 58.3 °F /  14.6 °C 29.87 in /  1011.4 hPa SSE 2.1 mph /  3.4 km/h 3.0 mph /  4.8 km/h 89 % 0.00 in /  0 mm
19:41 61.6 °F /  16.4 °C 58.3 °F /  14.6 °C 29.87 in /  1011.4 hPa SSE 1.0 mph /  1.6 km/h 7.0 mph /  11.3 km/h 89 % 0.00 in /  0 mm
19:46 61.5 °F /  16.4 °C 58.5 °F /  14.7 °C 29.87 in /  1011.4 hPa South 3.0 mph /  4.8 km/h 6.0 mph /  9.7 km/h 90 % 0.00 in /  0 mm
19:51 61.4 °F /  16.3 °C 58.4 °F /  14.7 °C 29.87 in /  1011.4 hPa SE 2.9 mph /  4.7 km/h 4.6 mph /  7.4 km/h 90 % 0.00 in /  0 mm
19:56 61.4 °F /  16.3 °C 58.4 °F /  14.7 °C 29.87 in /  1011.4 hPa SE 1.1 mph /  1.8 km/h 3.5 mph /  5.6 km/h 90 % 0.00 in /  0 mm
20:01 61.4 °F /  16.3 °C 58.4 °F /  14.7 °C 29.87 in /  1011.4 hPa SSE 1.9 mph /  3.1 km/h 3.0 mph /  4.8 km/h 90 % 0.00 in /  0 mm
20:06 61.3 °F /  16.3 °C 58.3 °F /  14.6 °C 29.87 in /  1011.4 hPa SSE 1.8 mph /  2.9 km/h 8.1 mph /  13 km/h 90 % 0.00 in /  0 mm
20:11 61.3 °F /  16.3 °C 58.3 °F /  14.6 °C 29.87 in /  1011.4 hPa East 0.8 mph /  1.3 km/h 3.5 mph /  5.6 km/h 90 % 0.00 in /  0 mm
20:16 61.2 °F /  16.2 °C 58.2 °F /  14.6 °C 29.87 in /  1011.4 hPa SE 1.6 mph /  2.6 km/h 3.5 mph /  5.6 km/h 90 % 0.00 in /  0 mm
20:21 61.1 °F /  16.2 °C 58.5 °F /  14.7 °C 29.86 in /  1011.1 hPa ESE 0.8 mph /  1.3 km/h 3.5 mph /  5.6 km/h 91 % 0.00 in /  0 mm
20:26 61.1 °F /  16.2 °C 58.5 °F /  14.7 °C 29.86 in /  1011.1 hPa SE 0.2 mph /  0.3 km/h 3.5 mph /  5.6 km/h 91 % 0.00 in /  0 mm
20:31 61.1 °F /  16.2 °C 58.5 °F /  14.7 °C 29.86 in /  1011.1 hPa East 1.3 mph /  2.1 km/h 3.5 mph /  5.6 km/h 91 % 0.00 in /  0 mm
20:36 61.0 °F /  16.1 °C 58.7 °F /  14.8 °C 29.86 in /  1011.1 hPa SE 3.0 mph /  4.8 km/h 4.6 mph /  7.4 km/h 92 % 0.00 in /  0 mm
20:41 61.0 °F /  16.1 °C 58.7 °F /  14.8 °C 29.86 in /  1011.1 hPa SE 1.0 mph /  1.6 km/h 8.1 mph /  13 km/h 92 % 0.00 in /  0 mm
20:46 60.9 °F /  16.1 °C 58.9 °F /  14.9 °C 29.86 in /  1011.1 hPa SE 0.2 mph /  0.3 km/h 2.3 mph /  3.7 km/h 93 % 0.00 in /  0 mm
20:51 60.9 °F /  16.1 °C 58.9 °F /  14.9 °C 29.87 in /  1011.4 hPa ESE 0.3 mph /  0.5 km/h 3.5 mph /  5.6 km/h 93 % 0.00 in /  0 mm
20:57 60.9 °F /  16.1 °C 58.9 °F /  14.9 °C 29.87 in /  1011.4 hPa SE 0.5 mph /  0.8 km/h 2.3 mph /  3.7 km/h 93 % 0.00 in /  0 mm
21:02 60.9 °F /  16.1 °C 58.9 °F /  14.9 °C 29.87 in /  1011.4 hPa East 0.1 mph /  0.2 km/h 2.3 mph /  3.7 km/h 93 % 0.00 in /  0 mm
21:07 60.9 °F /  16.1 °C 58.9 °F /  14.9 °C 29.87 in /  1011.4 hPa SE 0.6 mph /  1 km/h 2.3 mph /  3.7 km/h 93 % 0.00 in /  0 mm
21:12 60.9 °F /  16.1 °C 59.2 °F /  15.1 °C 29.87 in /  1011.4 hPa SE 0.2 mph /  0.3 km/h 1.2 mph /  1.9 km/h 94 % 0.00 in /  0 mm
21:17 60.9 °F /  16.1 °C 59.2 °F /  15.1 °C 29.87 in /  1011.4 hPa SE 1.2 mph /  1.9 km/h 3.5 mph /  5.6 km/h 94 % 0.00 in /  0 mm
21:22 60.9 °F /  16.1 °C 59.2 °F /  15.1 °C 29.87 in /  1011.4 hPa ESE 1.5 mph /  2.4 km/h 3.5 mph /  5.6 km/h 94 % 0.00 in /  0 mm
21:27 60.9 °F /  16.1 °C 59.2 °F /  15.1 °C 29.87 in /  1011.4 hPa ESE 2.1 mph /  3.4 km/h 3.5 mph /  5.6 km/h 94 % 0.00 in /  0 mm
21:32 61.0 °F /  16.1 °C 59.6 °F /  15.3 °C 29.87 in /  1011.4 hPa ESE 4.9 mph /  7.9 km/h 10.4 mph /  16.7 km/h 95 % 0.00 in /  0 mm
21:37 61.0 °F /  16.1 °C 59.6 °F /  15.3 °C 29.87 in /  1011.4 hPa SE 0.5 mph /  0.8 km/h 2.0 mph /  3.2 km/h 95 % 0.00 in /  0 mm
21:42 61.0 °F /  16.1 °C 59.6 °F /  15.3 °C 29.87 in /  1011.4 hPa SSE 0.8 mph /  1.3 km/h 3.5 mph /  5.6 km/h 95 % 0.00 in /  0 mm
21:47 61.0 °F /  16.1 °C 59.6 °F /  15.3 °C 29.88 in /  1011.7 hPa SSE 0.5 mph /  0.8 km/h 2.3 mph /  3.7 km/h 95 % 0.00 in /  0 mm
21:52 61.0 °F /  16.1 °C 59.6 °F /  15.3 °C 29.88 in /  1011.7 hPa SSE 0.6 mph /  1 km/h 3.5 mph /  5.6 km/h 95 % 0.00 in /  0 mm
21:57 61.0 °F /  16.1 °C 59.9 °F /  15.5 °C 29.88 in /  1011.7 hPa SSW 1.0 mph /  1.6 km/h 2.3 mph /  3.7 km/h 96 % 0.00 in /  0 mm
22:02 61.0 °F /  16.1 °C 59.6 °F /  15.3 °C 29.88 in /  1011.7 hPa South 2.1 mph /  3.4 km/h 3.5 mph /  5.6 km/h 95 % 0.00 in /  0 mm
22:07 60.9 °F /  16.1 °C 59.8 °F /  15.4 °C 29.88 in /  1011.7 hPa SSE 2.5 mph /  4 km/h 5.8 mph /  9.3 km/h 96 % 0.00 in /  0 mm
22:13 60.9 °F /  16.1 °C 59.8 °F /  15.4 °C 29.88 in /  1011.7 hPa SSW 0.3 mph /  0.5 km/h 1.0 mph /  1.6 km/h 96 % 0.00 in /  0 mm
22:18 60.9 °F /  16.1 °C 59.8 °F /  15.4 °C 29.88 in /  1011.7 hPa Calm     96 % 0.00 in /  0 mm
22:23 60.9 °F /  16.1 °C 59.8 °F /  15.4 °C 29.88 in /  1011.7 hPa SE 0.1 mph /  0.2 km/h 1.2 mph /  1.9 km/h 96 % 0.00 in /  0 mm
22:28 60.8 °F /  16 °C 59.7 °F /  15.4 °C 29.88 in /  1011.7 hPa SSE 2.1 mph /  3.4 km/h 3.5 mph /  5.6 km/h 96 % 0.00 in /  0 mm
22:33 60.7 °F /  15.9 °C 59.6 °F /  15.3 °C 29.88 in /  1011.7 hPa SSE 3.3 mph /  5.3 km/h 5.8 mph /  9.3 km/h 96 % 0.00 in /  0 mm
22:38 60.6 °F /  15.9 °C 59.5 °F /  15.3 °C 29.87 in /  1011.4 hPa SE 3.6 mph /  5.8 km/h 4.6 mph /  7.4 km/h 96 % 0.00 in /  0 mm
22:43 60.5 °F /  15.8 °C 59.4 °F /  15.2 °C 29.87 in /  1011.4 hPa Calm     96 % 0.00 in /  0 mm
22:48 60.5 °F /  15.8 °C 59.4 °F /  15.2 °C 29.87 in /  1011.4 hPa SE 0.9 mph /  1.4 km/h 3.5 mph /  5.6 km/h 96 % 0.00 in /  0 mm
22:53 60.4 °F /  15.8 °C 59.3 °F /  15.2 °C 29.87 in /  1011.4 hPa ESE 0.4 mph /  0.6 km/h 2.3 mph /  3.7 km/h 96 % 0.00 in /  0 mm
22:54 60.4 °F /  15.8 °C 59.3 °F /  15.2 °C 29.87 in /  1011.4 hPa ESE 0.2 mph /  0.3 km/h 1.2 mph /  1.9 km/h 96 % 0.00 in /  0 mm
23:00 60.3 °F /  15.7 °C 59.2 °F /  15.1 °C 29.87 in /  1011.4 hPa SSE 0.3 mph /  0.5 km/h   96 % 0.00 in /  0 mm
23:05 60.3 °F /  15.7 °C 59.2 °F /  15.1 °C 29.87 in /  1011.4 hPa Calm   1.2 mph /  1.9 km/h 96 % 0.00 in /  0 mm
23:10 60.1 °F /  15.6 °C 58.7 °F /  14.8 °C 29.87 in /  1011.4 hPa SE 1.4 mph /  2.3 km/h 4.6 mph /  7.4 km/h 95 % 0.00 in /  0 mm
23:15 60.0 °F /  15.6 °C 58.6 °F /  14.8 °C 29.87 in /  1011.4 hPa Calm   2.3 mph /  3.7 km/h 95 % 0.00 in /  0 mm
23:20 59.9 °F /  15.5 °C 58.8 °F /  14.9 °C 29.87 in /  1011.4 hPa Calm   2.3 mph /  3.7 km/h 96 % 0.00 in /  0 mm
23:25 59.9 °F /  15.5 °C 58.8 °F /  14.9 °C 29.87 in /  1011.4 hPa Calm     96 % 0.00 in /  0 mm
23:30 59.8 °F /  15.4 °C 58.7 °F /  14.8 °C 29.87 in /  1011.4 hPa SSE 0.3 mph /  0.5 km/h 1.2 mph /  1.9 km/h 96 % 0.00 in /  0 mm
23:35 59.7 °F /  15.4 °C 58.6 °F /  14.8 °C 29.86 in /  1011.1 hPa SE 0.7 mph /  1.1 km/h 2.3 mph /  3.7 km/h 96 % 0.00 in /  0 mm
23:40 59.6 °F /  15.3 °C 58.2 °F /  14.6 °C 29.86 in /  1011.1 hPa SE 0.4 mph /  0.6 km/h 3.0 mph /  4.8 km/h 95 % 0.00 in /  0 mm
23:45 59.6 °F /  15.3 °C 58.5 °F /  14.7 °C 29.86 in /  1011.1 hPa Calm     96 % 0.00 in /  0 mm
23:50 59.6 °F /  15.3 °C 58.5 °F /  14.7 °C 29.86 in /  1011.1 hPa SE 0.9 mph /  1.4 km/h 1.2 mph /  1.9 km/h 96 % 0.00 in /  0 mm
23:55 59.5 °F /  15.3 °C 58.4 °F /  14.7 °C 29.86 in /  1011.1 hPa SSE 0.9 mph /  1.4 km/h 1.0 mph /  1.6 km/h 96 % 0.00 in /  0 mm
Crab Meadow Weather
Compliments of Weather Underground - 3 mb

Script developed by  Jim McMurry - jmcmurry@mwt.net Adapted for the template by  Wim van der Kuil - Leuven-Template.eu

Weather Terms: Heat Index - The apparent temperature that describes the combined effect of high temperatures and high levels of humidity, which reduces the body's ability to cool itself.